Time;durP1;ratioP1;P1;durP2;ratioP2;P2;SDS_P1;SDS_P2;PMS_P1;PMS_P2;Temp;Humidity;BMP_temperature;BMP_pressure;BME280_temperature;BME280_humidity;BME280_pressure;Samples;Min_cycle;Max_cycle;Signal;HPM_P1;HPM_P2
2021/07/20 00:00:56;;;;;;;0.85;0.85;;;;;;;22.89;50.71;102192.47;5064472;28;20044;-76
2021/07/20 00:03:22;;;;;;;1.00;1.00;;;;;;;22.91;50.52;102197.59;5053600;28;20045;-76
2021/07/20 00:05:47;;;;;;;1.00;1.00;;;;;;;22.89;50.90;102188.97;5059384;28;20044;-76
2021/07/20 00:08:13;;;;;;;0.80;0.80;;;;;;;22.87;50.61;102194.47;5060961;28;20212;-76
2021/07/20 00:10:49;;;;;;;0.90;0.90;;;;;;;22.88;50.91;102197.94;5059463;28;20028;-76
2021/07/20 00:13:16;;;;;;;0.82;0.82;;;;;;;22.77;50.82;102172.50;5065339;28;20090;-76
2021/07/20 00:15:42;;;;;;;0.95;0.95;;;;;;;22.85;50.53;102185.00;5064574;28;20687;-76
2021/07/20 00:18:11;;;;;;;0.80;0.80;;;;;;;22.86;50.99;102189.31;5051348;28;20032;-76
2021/07/20 00:20:37;;;;;;;0.80;0.80;;;;;;;22.86;50.92;102184.84;5058743;28;20079;-76
2021/07/20 00:23:04;;;;;;;0.90;0.90;;;;;;;22.86;50.93;102194.63;5061223;28;20048;-76
2021/07/20 00:25:29;;;;;;;0.80;0.80;;;;;;;22.69;51.02;102169.88;5062332;28;20032;-76
2021/07/20 00:27:57;;;;;;;0.90;0.90;;;;;;;22.71;50.79;102169.69;5065467;28;20497;-76
2021/07/20 00:30:23;;;;;;;0.82;0.82;;;;;;;22.80;50.71;102180.16;5062471;28;20491;-76
2021/07/20 00:32:49;;;;;;;0.90;0.90;;;;;;;22.72;51.04;102177.50;5046729;28;20474;-76
2021/07/20 00:35:15;;;;;;;0.93;0.93;;;;;;;22.83;51.03;102198.44;5052181;28;20123;-76
2021/07/20 00:37:41;;;;;;;0.90;0.90;;;;;;;22.82;51.23;102201.28;5064392;28;20131;-76
2021/07/20 00:40:14;;;;;;;0.90;0.90;;;;;;;22.83;50.75;102201.09;5063514;28;20041;-76
2021/07/20 00:42:40;;;;;;;0.65;0.65;;;;;;;22.80;50.94;102195.25;5029094;28;20086;-76
2021/07/20 00:45:08;;;;;;;0.95;0.95;;;;;;;22.80;51.15;102201.41;5030607;28;20090;-75
2021/07/20 00:47:35;;;;;;;0.93;0.93;;;;;;;22.81;51.02;102192.44;5051655;28;20394;-75
2021/07/20 00:50:01;;;;;;;0.68;0.68;;;;;;;22.80;50.94;102190.78;5054529;28;20485;-77
2021/07/20 00:52:26;;;;;;;0.70;0.70;;;;;;;22.80;50.88;102193.44;5055865;28;20359;-75
2021/07/20 00:54:52;;;;;;;0.60;0.60;;;;;;;22.76;51.14;102191.25;5049429;28;20036;-76
2021/07/20 00:57:18;;;;;;;1.02;1.02;;;;;;;22.72;51.25;102176.66;5050918;28;20036;-75
2021/07/20 00:59:45;;;;;;;0.57;0.57;;;;;;;22.80;51.35;102187.28;5051404;28;20584;-75
2021/07/20 01:02:13;;;;;;;0.80;0.80;;;;;;;22.79;50.97;102194.41;5050899;28;20056;-75
2021/07/20 01:04:39;;;;;;;0.70;0.70;;;;;;;22.70;51.05;102174.19;5052256;28;20128;-77
2021/07/20 01:07:08;;;;;;;0.88;0.88;;;;;;;22.79;51.06;102191.75;5062212;28;20470;-75
2021/07/20 01:09:35;;;;;;;0.80;0.80;;;;;;;22.79;51.02;102183.78;5069148;28;20550;-77
2021/07/20 01:12:02;;;;;;;0.60;0.60;;;;;;;22.66;51.11;102161.41;5067349;28;20055;-75
2021/07/20 01:14:37;;;;;;;0.80;0.80;;;;;;;22.69;51.32;102158.41;5051760;28;20547;-76
2021/07/20 01:17:04;;;;;;;0.70;0.70;;;;;;;22.75;51.21;102171.84;5048550;28;20032;-75
2021/07/20 01:19:34;;;;;;;0.85;0.85;;;;;;;22.80;51.56;102184.63;5065886;28;20607;-75
2021/07/20 01:22:01;;;;;;;0.60;0.60;;;;;;;22.77;51.12;102177.00;5050220;28;20078;-75
2021/07/20 01:24:27;;;;;;;0.70;0.70;;;;;;;22.65;51.57;102157.94;5067738;28;20047;-76
2021/07/20 01:26:54;;;;;;;0.82;0.82;;;;;;;22.77;51.17;102174.34;5049623;28;20206;-76
2021/07/20 01:29:22;;;;;;;0.65;0.65;;;;;;;22.77;51.14;102177.81;5067268;28;20793;-76
2021/07/20 01:31:50;;;;;;;0.75;0.75;;;;;;;22.64;51.36;102160.75;5068216;28;20520;-76
2021/07/20 01:34:18;;;;;;;0.82;0.82;;;;;;;22.77;51.35;102182.31;5050111;28;20036;-76
2021/07/20 01:36:48;;;;;;;0.55;0.55;;;;;;;22.77;51.49;102183.13;5049046;28;20040;-76
2021/07/20 01:39:17;;;;;;;0.60;0.60;;;;;;;22.68;51.55;102180.66;5050296;28;20386;-76
2021/07/20 01:41:45;;;;;;;0.73;0.73;;;;;;;22.76;51.36;102191.25;5045452;28;20059;-75
2021/07/20 01:44:14;;;;;;;0.70;0.70;;;;;;;22.76;51.23;102192.09;5050763;28;20033;-76
2021/07/20 01:46:47;;;;;;;0.60;0.60;;;;;;;22.76;51.34;102186.78;5050564;28;20098;-76
2021/07/20 01:49:15;;;;;;;0.60;0.60;;;;;;;22.71;51.67;102178.50;5048533;28;20044;-76
2021/07/20 01:51:44;;;;;;;0.70;0.70;;;;;;;22.74;51.37;102182.63;5050455;28;20036;-76
2021/07/20 01:54:14;;;;;;;0.60;0.60;;;;;;;22.77;51.52;102184.97;5078146;28;20043;-75
2021/07/20 01:56:41;;;;;;;0.93;0.93;;;;;;;22.70;51.69;102174.19;5052697;28;20484;-76
2021/07/20 01:59:10;;;;;;;0.82;0.82;;;;;;;22.66;51.61;102164.06;5035357;28;20122;-76
2021/07/20 02:02:12;;;;;;;0.50;0.50;;;;;;;22.73;51.70;102173.00;5067034;28;20196;-76
2021/07/20 02:10:09;;;;;;;0.55;0.55;;;;;;;22.72;51.78;102182.81;5049707;28;20036;-76
2021/07/20 02:12:57;;;;;;;0.80;0.80;;;;;;;22.67;51.67;102177.19;5065972;28;20123;-76
2021/07/20 02:15:29;;;;;;;0.65;0.65;;;;;;;22.63;52.00;102175.84;5039836;28;20514;-75
2021/07/20 02:18:03;;;;;;;0.50;0.50;;;;;;;22.74;51.90;102194.09;5060340;28;20569;-76
2021/07/20 02:20:34;;;;;;;0.73;0.73;;;;;;;22.70;51.98;102183.97;5049037;28;20081;-76
2021/07/20 02:23:08;;;;;;;0.60;0.60;;;;;;;22.74;51.71;102198.56;5049064;28;20583;-76
2021/07/20 02:25:38;;;;;;;0.70;0.70;;;;;;;22.61;51.99;102175.16;5061703;28;20036;-76
2021/07/20 02:28:08;;;;;;;0.60;0.60;;;;;;;22.72;51.92;102196.09;5058028;28;20028;-75
2021/07/20 02:30:39;;;;;;;0.45;0.45;;;;;;;22.67;51.88;102193.09;5048972;28;20039;-76
2021/07/20 02:33:05;;;;;;;0.60;0.60;;;;;;;22.65;52.14;102187.13;5047883;28;20406;-75
2021/07/20 02:35:36;;;;;;;0.75;0.75;;;;;;;22.57;52.13;102169.34;5045138;28;20033;-75
2021/07/20 02:38:06;;;;;;;0.60;0.60;;;;;;;22.70;52.01;102183.97;5044053;28;20025;-76
2021/07/20 02:40:34;;;;;;;0.60;0.60;;;;;;;22.66;52.19;102174.69;5046062;28;20228;-76
2021/07/20 02:43:01;;;;;;;0.40;0.40;;;;;;;22.72;51.78;102188.13;5053696;28;20049;-75
2021/07/20 02:45:32;;;;;;;0.70;0.70;;;;;;;22.63;51.68;102172.38;5018494;28;20040;-75
2021/07/20 02:47:59;;;;;;;0.50;0.50;;;;;;;22.70;51.98;102189.28;5048863;28;20522;-76
2021/07/20 02:50:30;;;;;;;0.50;0.50;;;;;;;22.70;51.83;102198.06;5065689;28;20032;-75
2021/07/20 02:53:21;;;;;;;0.45;0.45;;;;;;;22.69;52.22;102196.41;5054839;28;20036;-76
2021/07/20 02:55:53;;;;;;;0.55;0.55;;;;;;;22.66;51.88;102187.97;5062780;28;20252;-75
2021/07/20 02:58:21;;;;;;;0.70;0.70;;;;;;;22.66;51.98;102190.63;5054185;28;20045;-75
2021/07/20 03:00:48;;;;;;;0.60;0.60;;;;;;;22.62;52.23;102179.47;5059219;28;20037;-76
2021/07/20 03:03:15;;;;;;;0.60;0.60;;;;;;;22.64;52.08;102184.66;5061972;28;20320;-75
2021/07/20 03:05:48;;;;;;;0.50;0.50;;;;;;;22.65;52.21;102181.00;5049517;28;20041;-75
2021/07/20 03:08:22;;;;;;;0.52;0.52;;;;;;;22.58;52.00;102178.97;5045098;28;20037;-75
2021/07/20 03:11:03;;;;;;;0.65;0.65;;;;;;;22.68;52.24;102204.56;5042954;28;20120;-76
2021/07/20 03:13:31;;;;;;;0.45;0.45;;;;;;;22.68;52.26;102199.25;5060382;28;20617;-76
2021/07/20 03:16:01;;;;;;;0.70;0.70;;;;;;;22.65;52.35;102194.28;5044254;28;20032;-76
2021/07/20 03:18:28;;;;;;;;;;;;;;;22.67;52.28;102198.41;5057591;28;20040;-75
2021/07/20 03:20:59;;;;;;;0.43;0.43;;;;;;;22.61;52.15;102191.91;5041269;28;20018;-75
2021/07/20 03:23:27;;;;;;;0.50;0.50;;;;;;;22.59;52.14;102182.47;5047473;28;20162;-76
2021/07/20 03:25:58;;;;;;;0.60;0.60;;;;;;;22.66;52.04;102195.94;5037901;28;20047;-76
2021/07/20 03:28:25;;;;;;;0.52;0.52;;;;;;;22.64;51.98;102192.63;5047009;28;20028;-75
2021/07/20 03:30:52;;;;;;;0.57;0.57;;;;;;;22.57;52.26;102187.94;5044620;28;20064;-75
2021/07/20 03:33:21;;;;;;;0.57;0.57;;;;;;;22.65;52.28;102189.78;5041727;28;20041;-76
2021/07/20 03:36:13;;;;;;;0.60;0.60;;;;;;;22.66;52.27;102198.59;5047234;28;20049;-75
2021/07/20 03:38:39;;;;;;;0.50;0.50;;;;;;;22.65;52.11;102195.09;5045574;28;20036;-76
2021/07/20 03:41:07;;;;;;;0.43;0.43;;;;;;;22.66;52.44;102195.94;5047125;28;20376;-75
2021/07/20 03:43:35;;;;;;;0.60;0.60;;;;;;;22.65;52.04;102191.63;5027438;28;20087;-75
2021/07/20 03:46:03;;;;;;;0.40;0.40;;;;;;;22.64;52.05;102195.28;5039879;28;20032;-76
2021/07/20 03:48:32;;;;;;;0.47;0.47;;;;;;;22.63;52.37;102189.13;5064576;28;20051;-75
2021/07/20 03:51:20;;;;;;;0.43;0.43;;;;;;;22.64;52.49;102189.97;5061489;28;20044;-76
2021/07/20 03:53:47;;;;;;;0.60;0.60;;;;;;;22.55;52.11;102179.31;5058141;28;20028;-76
2021/07/20 03:56:15;;;;;;;0.50;0.50;;;;;;;22.61;52.37;102189.25;5026068;28;20032;-76
2021/07/20 03:58:50;;;;;;;0.40;0.40;;;;;;;22.52;52.42;102177.00;5044670;28;20568;-75
2021/07/20 04:01:17;;;;;;;0.40;0.40;;;;;;;22.49;52.56;102173.84;5062157;28;20025;-76
2021/07/20 04:03:46;;;;;;;0.63;0.63;;;;;;;22.61;52.29;102191.09;5047521;28;20033;-76
2021/07/20 04:06:32;;;;;;;0.50;0.50;;;;;;;22.62;52.37;102198.06;5057633;28;20039;-76
2021/07/20 04:09:16;;;;;;;0.40;0.40;;;;;;;22.61;52.41;102191.91;5061991;28;20139;-76
2021/07/20 04:12:07;;;;;;;0.40;0.40;;;;;;;22.61;52.55;102193.75;5033632;28;20075;-76
2021/07/20 04:14:55;;;;;;;0.50;0.50;;;;;;;22.54;52.41;102182.13;5059783;28;20145;-76
2021/07/20 04:17:25;;;;;;;0.50;0.50;;;;;;;22.55;52.51;102189.09;5035959;28;20045;-75
2021/07/20 04:19:51;;;;;;;0.50;0.50;;;;;;;22.60;52.17;102197.41;5047012;28;20036;-76
2021/07/20 04:22:21;;;;;;;0.60;0.60;;;;;;;22.58;52.41;102196.75;5052166;28;20033;-76
2021/07/20 04:24:47;;;;;;;0.40;0.40;;;;;;;22.52;52.35;102197.41;5047310;28;20514;-76
2021/07/20 04:27:15;;;;;;;0.43;0.43;;;;;;;22.58;52.32;102194.09;5060016;28;20040;-76
2021/07/20 04:29:42;;;;;;;0.50;0.50;;;;;;;22.60;52.24;102200.06;5046677;28;20117;-76
2021/07/20 04:32:10;;;;;;;0.30;0.30;;;;;;;22.54;52.58;102190.09;5051265;28;20056;-76
2021/07/20 04:34:38;;;;;;;0.50;0.50;;;;;;;22.59;52.45;102201.06;5056098;28;20087;-76
2021/07/20 04:37:17;;;;;;;0.40;0.40;;;;;;;22.55;52.67;102195.25;5031196;28;20131;-75
2021/07/20 04:39:48;;;;;;;0.40;0.40;;;;;;;22.58;52.73;102196.75;5031779;28;20536;-76
2021/07/20 04:42:18;;;;;;;0.73;0.73;;;;;;;22.60;52.33;102198.22;5019177;28;20052;-75
2021/07/20 04:44:44;;;;;;;0.50;0.50;;;;;;;22.60;52.56;102202.72;5034735;28;20041;-75
2021/07/20 04:47:28;;;;;;;0.52;0.52;;;;;;;22.50;52.48;102178.16;5054098;28;20097;-75
2021/07/20 04:50:04;;;;;;;0.30;0.30;;;;;;;22.57;52.58;102198.56;5061999;28;20032;-75
2021/07/20 04:52:32;;;;;;;0.43;0.43;;;;;;;22.52;52.44;102189.44;5053003;28;20044;-75
2021/07/20 04:54:58;;;;;;;0.38;0.38;;;;;;;22.52;52.59;102189.44;5036860;28;20036;-76
2021/07/20 04:57:24;;;;;;;0.50;0.50;;;;;;;22.44;52.65;102171.69;5060956;28;20043;-76
2021/07/20 04:59:50;;;;;;;0.50;0.50;;;;;;;22.46;52.38;102172.34;5053947;28;20033;-75
2021/07/20 05:02:18;;;;;;;0.30;0.30;;;;;;;22.58;52.76;102194.91;5045933;28;20037;-75
2021/07/20 05:04:48;;;;;;;0.40;0.40;;;;;;;22.60;52.71;102203.53;5055061;28;20109;-76
2021/07/20 05:07:18;;;;;;;0.50;0.50;;;;;;;22.53;52.39;102188.44;5035086;28;20191;-76
2021/07/20 05:09:52;;;;;;;0.50;0.50;;;;;;;22.61;52.59;102201.72;5062660;28;20025;-76
2021/07/20 05:12:19;;;;;;;0.30;0.30;;;;;;;22.61;52.44;102199.88;5046702;28;20052;-76
2021/07/20 05:14:53;;;;;;;0.45;0.45;;;;;;;22.42;52.66;102183.44;5054710;28;20032;-76
2021/07/20 05:17:21;;;;;;;0.50;0.50;;;;;;;22.59;52.80;102203.69;5060501;28;20383;-75
2021/07/20 05:19:49;;;;;;;0.50;0.50;;;;;;;22.54;52.62;102196.25;5043633;28;20041;-75
2021/07/20 05:22:25;;;;;;;0.45;0.45;;;;;;;22.55;52.73;102192.59;5057962;28;20128;-76
2021/07/20 05:24:53;;;;;;;0.40;0.40;;;;;;;22.58;52.70;102208.19;5047560;28;20139;-76
2021/07/20 05:27:23;;;;;;;0.40;0.40;;;;;;;22.51;51.50;102206.38;5052781;28;20033;-66
2021/07/20 05:29:51;;;;;;;0.50;0.50;;;;;;;22.34;50.39;102208.16;5049769;28;20072;-66
2021/07/20 05:32:30;;;;;;;0.30;0.30;;;;;;;22.13;50.01;102207.78;5048657;28;20304;-66
2021/07/20 05:34:57;;;;;;;0.30;0.30;;;;;;;21.98;50.22;102211.03;5064896;28;20032;-66
2021/07/20 05:37:24;;;;;;;0.40;0.40;;;;;;;21.88;50.41;102209.47;5065313;28;20103;-66
2021/07/20 05:39:54;;;;;;;0.40;0.40;;;;;;;21.69;50.49;102200.78;5064799;28;20442;-66
2021/07/20 05:42:32;;;;;;;0.40;0.40;;;;;;;21.71;50.67;102212.06;5049532;28;20060;-66
2021/07/20 05:45:00;;;;;;;0.40;0.40;;;;;;;21.65;50.83;102218.00;5047327;28;20072;-66
2021/07/20 05:47:29;;;;;;;0.28;0.28;;;;;;;21.62;51.16;102215.66;5066224;28;20036;-66
2021/07/20 05:49:56;;;;;;;0.47;0.47;;;;;;;21.49;51.04;102209.13;5056976;28;20036;-66
2021/07/20 05:52:24;;;;;;;0.52;0.52;;;;;;;21.51;51.26;102209.81;5048007;28;20601;-67
2021/07/20 05:54:54;;;;;;;0.50;0.50;;;;;;;21.36;51.33;102207.75;5047513;28;20037;-66
2021/07/20 05:57:29;;;;;;;0.38;0.38;;;;;;;21.09;51.13;102168.97;5047577;28;20114;-66
2021/07/20 06:00:12;;;;;;;0.40;0.40;;;;;;;21.38;52.01;102211.06;5047709;28;20071;-78
2021/07/20 06:02:57;;;;;;;0.50;0.50;;;;;;;21.55;51.51;102212.00;5052494;28;20402;-78
2021/07/20 06:05:27;;;;;;;0.50;0.50;;;;;;;21.66;51.66;102211.72;5022935;28;20033;-78
2021/07/20 06:07:55;;;;;;;0.40;0.40;;;;;;;21.73;51.44;102209.28;5064405;28;20144;-78
2021/07/20 06:10:22;;;;;;;0.35;0.35;;;;;;;21.75;51.88;102202.00;5032056;28;20024;-78
2021/07/20 06:12:49;;;;;;;0.40;0.40;;;;;;;21.84;51.57;102213.44;5053320;28;20048;-78
2021/07/20 06:15:17;;;;;;;0.20;0.20;;;;;;;21.87;51.96;102211.31;5067906;28;20045;-78
2021/07/20 06:17:46;;;;;;;0.30;0.30;;;;;;;21.81;51.86;102197.84;5065527;28;20047;-78
2021/07/20 06:20:13;;;;;;;0.40;0.40;;;;;;;21.94;51.68;102222.94;5064374;28;20116;-79
2021/07/20 06:22:48;;;;;;;0.43;0.43;;;;;;;21.91;51.99;102203.88;5055737;28;20532;-77
2021/07/20 06:25:15;;;;;;;0.40;0.40;;;;;;;22.01;51.84;102218.66;5065985;28;20573;-77
2021/07/20 06:27:43;;;;;;;0.50;0.50;;;;;;;21.81;51.87;102179.28;5065168;28;20078;-76
2021/07/20 06:30:10;;;;;;;0.40;0.40;;;;;;;22.03;51.83;102214.00;5067387;28;20036;-76
2021/07/20 06:32:36;;;;;;;0.50;0.50;;;;;;;22.02;51.82;102209.69;5048400;28;20040;-77
2021/07/20 06:35:02;;;;;;;0.40;0.40;;;;;;;22.07;51.87;102219.03;5063760;28;20123;-77
2021/07/20 06:37:28;;;;;;;0.38;0.38;;;;;;;22.08;51.86;102213.56;5056986;28;20040;-76
2021/07/20 06:39:54;;;;;;;0.38;0.38;;;;;;;22.10;52.24;102218.72;5057691;28;20048;-77
2021/07/20 06:42:21;;;;;;;0.38;0.38;;;;;;;22.12;51.77;102220.22;5063132;28;20032;-74
2021/07/20 06:44:47;;;;;;;0.30;0.30;;;;;;;22.13;51.81;102216.56;5056118;28;20134;-76
2021/07/20 06:47:17;;;;;;;0.60;0.60;;;;;;;22.11;51.10;102207.94;5026700;28;20094;-65
2021/07/20 06:49:48;;;;;;;0.30;0.30;;;;;;;22.31;51.18;102225.25;5050279;28;20028;-67
2021/07/20 06:52:18;;;;;;;0.40;0.40;;;;;;;22.42;51.86;102228.56;5060727;28;20048;-63
2021/07/20 06:54:44;;;;;;;0.20;0.20;;;;;;;22.48;51.14;102222.63;5057756;28;20052;-64
2021/07/20 06:57:16;;;;;;;0.30;0.30;;;;;;;22.52;50.15;102227.44;5060229;28;20048;-64
2021/07/20 06:59:43;;;;;;;0.40;0.40;;;;;;;22.42;50.38;102215.28;5059212;28;20090;-65
2021/07/20 07:02:15;;;;;;;0.30;0.30;;;;;;;22.54;50.10;102228.09;5017849;28;20075;-64
2021/07/20 07:04:48;;;;;;;0.35;0.30;;;;;;;22.65;50.26;102229.63;5053102;28;20033;-64
2021/07/20 07:07:16;;;;;;;0.30;0.30;;;;;;;22.46;49.60;102192.75;5065345;28;20051;-64
2021/07/20 07:09:42;;;;;;;0.40;0.40;;;;;;;22.56;49.28;102207.53;5037096;28;20639;-65
2021/07/20 07:12:09;;;;;;;0.70;0.70;;;;;;;22.68;48.91;102228.44;5043957;28;20044;-64
2021/07/20 07:14:35;;;;;;;0.40;0.40;;;;;;;22.73;48.98;102212.84;5022560;28;20052;-66
2021/07/20 07:17:03;;;;;;;0.40;0.40;;;;;;;22.91;48.76;102227.66;5058824;28;20039;-64
2021/07/20 07:19:29;;;;;;;0.32;0.32;;;;;;;22.99;47.93;102229.50;5039252;28;20544;-64
2021/07/20 07:21:55;;;;;;;0.63;0.40;;;;;;;23.05;47.83;102228.81;5044894;28;20037;-64
2021/07/20 07:24:21;;;;;;;0.43;0.43;;;;;;;23.09;47.78;102232.78;5036119;28;20040;-66
2021/07/20 07:26:49;;;;;;;0.40;0.40;;;;;;;23.12;48.24;102227.13;5058223;28;20052;-63
2021/07/20 07:29:17;;;;;;;0.43;0.43;;;;;;;22.94;48.47;102191.13;5039267;28;20033;-63
2021/07/20 07:31:44;;;;;;;1.38;0.30;;;;;;;22.99;45.74;102218.88;5057106;28;20040;-63
2021/07/20 07:34:11;;;;;;;0.35;0.35;;;;;;;23.24;46.32;102226.81;5025814;28;20036;-65
2021/07/20 07:36:38;;;;;;;0.40;0.40;;;;;;;23.28;46.57;102225.47;5061283;28;20543;-64
2021/07/20 07:39:05;;;;;;;0.30;0.30;;;;;;;23.32;44.29;102219.63;5046443;28;20024;-69
2021/07/20 07:41:34;;;;;;;0.40;0.40;;;;;;;23.39;44.82;102217.13;5036842;28;20040;-64
2021/07/20 07:44:04;;;;;;;0.43;0.43;;;;;;;23.44;45.22;102226.25;5060727;28;20055;-66
2021/07/20 07:46:32;;;;;;;0.40;0.40;;;;;;;23.34;46.00;102206.16;5019532;28;20052;-66
2021/07/20 07:48:58;;;;;;;0.55;0.55;;;;;;;23.47;46.03;102222.41;5061063;28;20036;-69
2021/07/20 07:51:24;;;;;;;0.40;0.40;;;;;;;23.51;46.78;102226.41;5027374;28;20383;-70
2021/07/20 07:53:52;;;;;;;0.35;0.35;;;;;;;23.37;45.92;102224.47;5064001;28;20038;-71
2021/07/20 07:56:18;;;;;;;0.35;0.35;;;;;;;23.37;43.95;102208.50;5033481;28;20035;-70
2021/07/20 07:58:44;;;;;;;0.38;0.38;;;;;;;23.33;43.47;102215.97;5066357;28;20394;-71
2021/07/20 08:01:11;;;;;;;0.40;0.40;;;;;;;23.37;44.43;102232.44;5032297;28;20038;-71
2021/07/20 08:03:41;;;;;;;0.50;0.50;;;;;;;23.41;45.40;102231.91;5041552;28;20078;-67
2021/07/20 08:06:08;;;;;;;0.40;0.40;;;;;;;23.43;45.19;102229.91;5033492;28;20119;-66
2021/07/20 08:08:34;;;;;;;0.40;0.40;;;;;;;23.55;44.81;102238.38;5060953;28;20166;-66
2021/07/20 08:11:02;;;;;;;0.50;0.50;;;;;;;23.61;44.04;102234.22;5037103;28;20032;-66
2021/07/20 08:13:29;;;;;;;0.52;0.52;;;;;;;23.67;45.69;102233.53;5057885;28;20032;-65
2021/07/20 08:15:56;;;;;;;0.30;0.30;;;;;;;23.79;44.15;102232.16;5028904;28;20394;-64
2021/07/20 08:18:23;;;;;;;0.30;0.30;;;;;;;23.76;46.01;102219.22;5017862;28;20037;-67
2021/07/20 08:20:56;;;;;;;0.47;0.45;;;;;;;23.87;45.38;102229.47;5033538;28;20060;-65
2021/07/20 08:23:21;;;;;;;0.40;0.40;;;;;;;23.96;44.02;102233.75;5052564;28;20456;-66
2021/07/20 08:25:52;;;;;;;0.40;0.40;;;;;;;23.84;42.58;102231.63;5059765;28;20036;-67
2021/07/20 08:28:30;;;;;;;0.30;0.30;;;;;;;23.97;41.25;102230.09;5027031;28;20045;-68
2021/07/20 08:31:02;;;;;;;0.32;0.32;;;;;;;23.98;40.69;102247.72;5060030;28;20032;-69
2021/07/20 08:33:31;;;;;;;0.30;0.30;;;;;;;24.01;41.90;102241.22;5027093;28;20056;-65
2021/07/20 08:36:01;;;;;;;0.43;0.40;;;;;;;23.93;42.48;102227.97;5057639;28;20090;-64
2021/07/20 08:38:34;;;;;;;0.30;0.30;;;;;;;24.08;43.46;102243.03;5027060;28;20206;-64
2021/07/20 08:41:09;;;;;;;0.30;0.30;;;;;;;24.14;44.35;102251.31;5036350;28;20111;-66
2021/07/20 08:43:46;;;;;;;0.32;0.32;;;;;;;24.22;41.65;102253.91;5031986;28;20049;-67
2021/07/20 08:46:25;;;;;;;0.50;0.50;;;;;;;24.19;42.64;102246.28;5063881;28;20040;-68
2021/07/20 08:49:10;;;;;;;0.40;0.40;;;;;;;24.29;43.27;102254.91;5024576;28;20036;-65
2021/07/20 08:51:57;;;;;;;0.30;0.30;;;;;;;24.34;42.72;102252.56;5048682;28;20150;-65
2021/07/20 08:54:37;;;;;;;0.28;0.28;;;;;;;24.35;42.49;102248.88;5032440;28;20037;-66
2021/07/20 08:57:06;;;;;;;0.30;0.30;;;;;;;24.38;42.91;102245.88;5060418;28;20517;-67
2021/07/20 08:59:46;;;;;;;0.45;0.45;;;;;;;24.37;42.56;102245.03;5031028;28;20033;-66
2021/07/20 09:02:30;;;;;;;;;;;;;;;24.44;43.40;102253.16;5052565;28;20064;-70
2021/07/20 09:05:15;;;;;;;0.35;0.35;;;;;;;24.26;43.54;102256.06;5037172;28;19916;-66
2021/07/20 09:08:32;;;;;;;0.40;0.40;;;;;;;24.14;44.80;102235.34;5054555;28;20109;-67
2021/07/20 09:11:07;;;;;;;0.32;0.32;;;;;;;24.31;44.01;102259.06;5019761;28;20049;-64
2021/07/20 09:13:37;;;;;;;0.30;0.30;;;;;;;24.39;43.72;102259.00;5065013;28;20368;-65
2021/07/20 09:16:22;;;;;;;0.30;0.30;;;;;;;24.48;43.99;102258.97;5039015;28;20486;-68
2021/07/20 09:18:55;;;;;;;0.32;0.30;;;;;;;24.39;44.94;102259.00;5040844;28;20087;-70
2021/07/20 09:21:27;;;;;;;0.30;0.30;;;;;;;24.39;45.32;102263.50;5047058;28;20036;-66
2021/07/20 09:24:12;;;;;;;0.57;0.52;;;;;;;24.37;44.23;102252.19;5033182;28;20710;-65
2021/07/20 09:26:43;;;;;;;0.38;0.35;;;;;;;24.41;43.97;102251.66;5055811;28;20497;-65
2021/07/20 09:29:15;;;;;;;0.30;0.30;;;;;;;24.55;43.77;102265.22;5041621;28;20025;-64
2021/07/20 09:31:46;;;;;;;0.40;0.38;;;;;;;24.58;43.81;102273.69;5065632;28;20029;-64
2021/07/20 09:34:19;;;;;;;0.32;0.32;;;;;;;24.65;43.34;102277.31;5041007;28;20691;-64
2021/07/20 09:37:00;;;;;;;0.35;0.35;;;;;;;24.67;43.12;102275.31;5061832;28;20449;-67
2021/07/20 09:39:40;;;;;;;0.30;0.30;;;;;;;24.68;43.40;102262.81;5027300;28;20108;-68
2021/07/20 09:42:20;;;;;;;0.60;0.60;;;;;;;24.76;43.63;102269.91;5063095;28;20033;-64
2021/07/20 09:45:01;;;;;;;0.60;0.60;;;;;;;24.74;43.65;102256.78;5039187;28;20278;-67
2021/07/20 09:47:41;;;;;;;0.30;0.30;;;;;;;24.81;42.40;102256.91;5057671;28;20028;-66
2021/07/20 09:50:15;;;;;;;0.28;0.20;;;;;;;24.76;42.80;102257.41;5035328;28;20078;-64
2021/07/20 09:52:57;;;;;;;0.30;0.30;;;;;;;24.79;43.05;102259.75;5063933;28;20041;-64
2021/07/20 09:55:38;;;;;;;0.30;0.30;;;;;;;24.82;41.92;102275.38;5028713;28;20044;-66
2021/07/20 09:58:22;;;;;;;0.20;0.20;;;;;;;24.84;42.55;102267.19;5059289;28;20098;-66
2021/07/20 10:01:14;;;;;;;0.30;0.30;;;;;;;24.72;42.64;102266.78;5039437;28;20032;-66
2021/07/20 10:03:59;;;;;;;0.30;0.30;;;;;;;24.74;42.98;102274.59;5065630;28;20028;-69
2021/07/20 10:07:06;;;;;;;0.50;0.47;;;;;;;24.57;42.99;102273.88;5036940;28;20032;-69
2021/07/20 10:10:06;;;;;;;0.30;0.30;;;;;;;24.55;44.39;102270.56;5035119;28;20907;-69
2021/07/20 10:13:02;;;;;;;0.28;0.28;;;;;;;24.56;44.62;102277.53;5047889;28;20085;-67
2021/07/20 10:15:59;;;;;;;0.40;0.40;;;;;;;24.31;43.97;102279.53;5037877;28;20032;-68
2021/07/20 10:18:47;;;;;;;0.50;0.50;;;;;;;24.36;44.60;102285.97;5063200;28;20522;-68
2021/07/20 10:21:18;;;;;;;0.30;0.30;;;;;;;24.40;44.92;102267.81;5037370;28;20036;-65
2021/07/20 10:23:53;;;;;;;0.30;0.30;;;;;;;24.50;44.48;102271.09;5059021;28;20036;-64
2021/07/20 10:26:32;;;;;;;0.50;0.50;;;;;;;24.55;44.64;102267.91;5027455;28;20036;-65
2021/07/20 10:29:18;;;;;;;0.35;0.35;;;;;;;24.53;43.79;102268.06;5045617;28;20101;-66
2021/07/20 10:32:06;;;;;;;0.45;0.45;;;;;;;24.61;43.96;102268.03;5032207;28;20040;-66
2021/07/20 10:34:32;;;;;;;0.40;0.40;;;;;;;24.64;43.77;102258.84;5066343;28;20066;-65
2021/07/20 10:37:05;;;;;;;0.20;0.20;;;;;;;24.64;42.91;102251.69;5039953;28;20025;-64
2021/07/20 10:39:43;;;;;;;0.52;0.40;;;;;;;24.63;43.35;102251.88;5063208;28;20101;-65
2021/07/20 10:42:12;;;;;;;0.30;0.30;;;;;;;24.59;42.85;102253.22;5032099;28;20071;-65
2021/07/20 10:44:56;;;;;;;0.40;0.40;;;;;;;24.63;41.95;102249.22;5063082;28;20098;-65
2021/07/20 10:47:28;;;;;;;0.10;0.10;;;;;;;24.48;41.77;102245.66;5031970;28;20116;-66
2021/07/20 10:50:01;;;;;;;0.20;0.20;;;;;;;24.54;40.93;102247.59;5059553;28;20389;-66
2021/07/20 10:52:55;;;;;;;0.35;0.20;;;;;;;24.63;42.58;102254.53;5033202;28;20067;-66
2021/07/20 10:55:35;;;;;;;0.20;0.20;;;;;;;24.65;42.20;102256.00;5063745;28;20097;-65
2021/07/20 10:58:25;;;;;;;0.85;0.35;;;;;;;24.56;43.22;102262.38;5032085;28;20037;-70
2021/07/20 11:01:12;;;;;;;0.20;0.20;;;;;;;24.40;40.71;102246.50;5062990;28;20114;-71
2021/07/20 11:04:19;;;;;;;0.28;0.28;;;;;;;24.44;42.17;102257.66;5039160;28;20079;-70
2021/07/20 11:06:47;;;;;;;0.20;0.20;;;;;;;24.35;42.27;102257.69;5042270;28;20051;-71
2021/07/20 11:09:18;;;;;;;0.98;0.30;;;;;;;24.26;41.08;102240.09;5038070;28;20040;-71
2021/07/20 11:11:48;;;;;;;0.25;0.25;;;;;;;24.30;41.15;102248.59;5065559;28;20356;-71
2021/07/20 11:14:15;;;;;;;0.20;0.20;;;;;;;24.26;42.39;102256.06;5028371;28;20043;-71
2021/07/20 11:16:42;;;;;;;0.30;0.30;;;;;;;24.19;42.82;102233.78;5043657;28;20051;-71
2021/07/20 11:19:09;;;;;;;0.40;0.40;;;;;;;24.29;42.51;102255.75;5039251;28;20036;-71
2021/07/20 11:21:36;;;;;;;0.28;0.28;;;;;;;24.29;41.98;102250.41;5044796;28;20119;-71
2021/07/20 11:24:03;;;;;;;0.20;0.20;;;;;;;24.20;42.02;102247.94;5036096;28;20044;-71
2021/07/20 11:26:30;;;;;;;0.22;0.22;;;;;;;24.22;42.60;102246.75;5045729;28;20032;-71
2021/07/20 11:28:56;;;;;;;0.28;0.28;;;;;;;24.22;43.51;102244.09;5038506;28;20033;-70
2021/07/20 11:31:28;;;;;;;0.10;0.10;;;;;;;24.16;43.38;102235.97;5054199;28;20444;-71
2021/07/20 11:33:59;;;;;;;0.30;0.30;;;;;;;24.07;43.37;102236.03;5064734;28;20038;-70
2021/07/20 11:36:30;;;;;;;0.30;0.30;;;;;;;24.10;43.03;102241.00;5037396;28;20386;-68
2021/07/20 11:38:59;;;;;;;0.28;0.28;;;;;;;24.18;43.13;102244.63;5064609;28;20668;-71
2021/07/20 11:41:27;;;;;;;0.20;0.20;;;;;;;24.19;42.80;102251.59;5036940;28;20056;-69
2021/07/20 11:44:17;;;;;;;0.22;0.22;;;;;;;24.11;43.43;102242.66;5064123;28;20051;-71
2021/07/20 11:47:04;;;;;;;1.27;0.43;;;;;;;24.18;44.38;102255.25;5024291;28;20071;-64
2021/07/20 11:49:37;;;;;;;0.30;0.30;;;;;;;24.14;44.72;102254.78;5063544;28;20187;-71
2021/07/20 11:52:10;;;;;;;0.20;0.20;;;;;;;23.89;44.58;102216.00;5040112;28;20040;-72
2021/07/20 11:54:42;;;;;;;0.15;0.15;;;;;;;24.04;45.15;102243.53;5051523;28;20071;-72